createdAt,value
2022-08-28T00:00:42.442Z,100836.31
2022-08-28T00:03:12.684Z,100836.84
2022-08-28T00:05:41.455Z,100839.06
2022-08-28T00:08:11.192Z,100842.34
2022-08-28T00:10:41.733Z,100845.75
2022-08-28T00:13:15.489Z,100841.94
2022-08-28T00:15:43.747Z,100839.06
2022-08-28T00:18:12.548Z,100845.72
2022-08-28T00:20:41.222Z,100841.78
2022-08-28T00:23:09.961Z,100842.81
2022-08-28T00:25:38.306Z,100853.22
2022-08-28T00:28:10.272Z,100848.66
2022-08-28T00:30:41.583Z,100838.53
2022-08-28T00:33:14.384Z,100844.38
2022-08-28T00:35:43.577Z,100848.06
2022-08-28T00:38:13.194Z,100850.47
2022-08-28T00:40:45.057Z,100851.75
2022-08-28T00:43:26.146Z,100841.38
2022-08-28T00:45:54.536Z,100844.63
2022-08-28T00:48:22.698Z,100844.88
2022-08-28T00:51:08.703Z,100843.38
2022-08-28T00:53:37.059Z,100839.38
2022-08-28T00:56:13.007Z,100838.19
2022-08-28T00:58:45.894Z,100827.94
2022-08-28T01:01:15.957Z,100831.19
2022-08-28T01:03:44.943Z,100831.47
2022-08-28T01:06:15.613Z,100830.16
2022-08-28T01:08:50.569Z,100834.25
2022-08-28T01:11:20.516Z,100832.00
2022-08-28T01:13:54.416Z,100836.94
2022-08-28T01:16:31.625Z,100827.94
2022-08-28T01:19:03.384Z,100828.50
2022-08-28T01:21:38.910Z,100830.09
2022-08-28T01:24:10.570Z,100838.03
2022-08-28T01:26:39.451Z,100843.69
2022-08-28T01:29:09.468Z,100844.53
2022-08-28T01:31:38.838Z,100848.56
2022-08-28T01:34:09.437Z,100852.91
2022-08-28T01:36:38.701Z,100840.56
2022-08-28T01:39:11.298Z,100844.84
2022-08-28T01:41:40.670Z,100842.28
2022-08-28T01:44:09.519Z,100847.53
2022-08-28T01:46:37.775Z,100844.59
2022-08-28T01:49:09.928Z,100854.50
2022-08-28T01:51:38.342Z,100848.81
2022-08-28T01:54:08.703Z,100846.13
2022-08-28T01:56:38.887Z,100848.56
2022-08-28T01:59:09.573Z,100852.59
2022-08-28T02:01:38.255Z,100848.56
2022-08-28T02:04:07.421Z,100843.44
2022-08-28T02:06:36.529Z,100843.16
2022-08-28T02:09:05.704Z,100847.44
2022-08-28T02:11:36.412Z,100844.81
2022-08-28T02:14:07.305Z,100843.38
2022-08-28T02:16:35.536Z,100842.97
2022-08-28T02:19:03.839Z,100838.38
2022-08-28T02:21:32.100Z,100835.53
2022-08-28T02:24:00.299Z,100831.72
2022-08-28T02:26:28.474Z,100828.91
2022-08-28T02:28:58.650Z,100834.97
2022-08-28T02:31:27.254Z,100828.72
2022-08-28T02:33:55.581Z,100826.78
2022-08-28T02:36:24.561Z,100823.38
2022-08-28T02:38:57.582Z,100831.75
2022-08-28T02:41:26.137Z,100838.41
2022-08-28T02:43:54.564Z,100838.13
2022-08-28T02:46:26.610Z,100821.72
2022-08-28T02:48:56.257Z,100830.47
2022-08-28T02:51:26.058Z,100831.75
2022-08-28T02:53:54.380Z,100836.44
2022-08-28T02:56:22.976Z,100833.28
2022-08-28T02:58:51.674Z,100828.50
2022-08-28T03:01:23.896Z,100828.81
2022-08-28T03:03:52.199Z,100829.66
2022-08-28T03:06:20.394Z,100830.50
2022-08-28T03:08:49.086Z,100831.47
2022-08-28T03:11:17.547Z,100849.47
2022-08-28T03:13:45.729Z,100846.31
2022-08-28T03:16:13.978Z,100845.78
2022-08-28T03:18:43.563Z,100852.72
2022-08-28T03:21:12.394Z,100836.88
2022-08-28T03:23:39.951Z,100842.94
2022-08-28T03:26:10.995Z,100840.69
2022-08-28T03:28:41.946Z,100834.59
2022-08-28T03:31:14.329Z,100833.31
2022-08-28T03:33:43.890Z,100842.91
2022-08-28T03:36:16.489Z,100839.72
2022-08-28T03:38:45.052Z,100844.47
2022-08-28T03:41:15.009Z,100837.00
2022-08-28T03:43:43.635Z,100835.44
2022-08-28T03:46:17.008Z,100834.47
2022-08-28T03:48:47.049Z,100836.19
2022-08-28T03:51:18.075Z,100830.22
2022-08-28T03:53:47.070Z,100840.16
2022-08-28T03:56:21.714Z,100844.13
2022-08-28T03:58:52.210Z,100843.69
2022-08-28T04:01:21.387Z,100839.56
2022-08-28T04:03:51.376Z,100850.50
2022-08-28T04:06:19.765Z,100851.75
2022-08-28T04:08:48.452Z,100861.66
2022-08-28T04:11:17.345Z,100854.75
2022-08-28T04:13:45.695Z,100861.81
2022-08-28T04:16:17.900Z,100860.25
2022-08-28T04:18:49.153Z,100862.94
2022-08-28T04:21:23.551Z,100861.66
2022-08-28T04:23:51.828Z,100866.19
2022-08-28T04:26:21.977Z,100867.03
2022-08-28T04:28:52.621Z,100863.91
2022-08-28T04:31:32.352Z,100871.00
2022-08-28T04:34:02.215Z,100861.56
2022-08-28T04:36:33.552Z,100873.28
2022-08-28T04:39:03.107Z,100874.28
2022-08-28T04:41:31.271Z,100868.19
2022-08-28T04:43:59.812Z,100869.63
2022-08-28T04:46:31.083Z,100877.25
2022-08-28T04:49:00.252Z,100879.50
2022-08-28T04:51:29.713Z,100877.50
2022-08-28T04:54:00.208Z,100883.50
2022-08-28T04:56:28.675Z,100880.22
2022-08-28T04:58:56.917Z,100886.88
2022-08-28T05:01:25.754Z,100885.72
2022-08-28T05:03:55.715Z,100887.28
2022-08-28T05:06:26.824Z,100888.31
2022-08-28T05:08:57.390Z,100887.72
2022-08-28T05:11:34.058Z,100880.22
2022-08-28T05:14:05.143Z,100882.06
2022-08-28T05:16:34.614Z,100882.75
2022-08-28T05:19:03.790Z,100881.78
2022-08-28T05:21:32.225Z,100884.47
2022-08-28T05:24:00.578Z,100888.28
2022-08-28T05:26:30.370Z,100886.72
2022-08-28T05:28:59.383Z,100885.75
2022-08-28T05:31:29.196Z,100879.25
2022-08-28T05:33:59.047Z,100879.69
2022-08-28T05:36:32.294Z,100877.56
2022-08-28T05:39:04.702Z,100876.97
2022-08-28T05:41:35.067Z,100881.78
2022-08-28T05:44:09.354Z,100867.94
2022-08-28T05:46:39.687Z,100876.97
2022-08-28T05:49:10.235Z,100874.44
2022-08-28T05:51:41.317Z,100876.41
2022-08-28T05:54:09.979Z,100888.44
2022-08-28T05:56:41.053Z,100883.91
2022-08-28T05:59:10.124Z,100880.53
2022-08-28T06:01:42.575Z,100886.88
2022-08-28T06:04:13.052Z,100880.22
2022-08-28T06:06:42.435Z,100886.19
2022-08-28T06:09:16.797Z,100895.09
2022-08-28T06:11:47.830Z,100888.28
2022-08-28T06:14:20.719Z,100887.56
2022-08-28T06:16:52.141Z,100882.06
2022-08-28T06:19:22.723Z,100880.38
2022-08-28T06:21:54.593Z,100889.44
2022-08-28T06:24:22.779Z,100878.13
2022-08-28T06:26:53.006Z,100885.88
2022-08-28T06:29:25.085Z,100888.72
2022-08-28T06:31:55.253Z,100895.63
2022-08-28T06:34:23.902Z,100886.75
2022-08-28T06:36:54.200Z,100891.09
2022-08-28T06:39:23.941Z,100892.81
2022-08-28T06:41:53.735Z,100884.19
2022-08-28T06:44:23.196Z,100884.88
2022-08-28T06:46:54.176Z,100891.81
2022-08-28T06:49:22.469Z,100895.94
2022-08-28T06:51:51.238Z,100904.00
2022-08-28T06:54:22.780Z,100905.81
2022-08-28T06:56:54.187Z,100910.75
2022-08-28T06:59:22.709Z,100913.72
2022-08-28T07:01:54.472Z,100906.25
2022-08-28T07:04:22.800Z,100912.19
2022-08-28T07:06:54.207Z,100912.19
2022-08-28T07:09:24.234Z,100919.13
2022-08-28T07:11:54.099Z,100915.56
2022-08-28T07:14:22.500Z,100914.59
2022-08-28T07:16:51.873Z,100914.88
2022-08-28T07:19:20.178Z,100916.56
2022-08-28T07:21:48.965Z,100919.28
2022-08-28T07:24:18.259Z,100911.91
2022-08-28T07:26:48.379Z,100918.28
2022-08-28T07:29:18.690Z,100920.53
2022-08-28T07:31:50.301Z,100917.97
2022-08-28T07:34:21.088Z,100925.91
2022-08-28T07:36:51.876Z,100926.03
2022-08-28T07:39:20.489Z,100925.75
2022-08-28T07:41:49.180Z,100934.66
2022-08-28T07:44:36.279Z,100933.53
2022-08-28T07:47:06.675Z,100932.84
2022-08-28T07:49:37.226Z,100934.66
2022-08-28T07:52:05.784Z,100929.81
2022-08-28T07:54:35.919Z,100929.00
2022-08-28T07:57:04.378Z,100934.38
2022-08-28T07:59:36.753Z,100929.00
2022-08-28T08:02:06.986Z,100926.38
2022-08-28T08:04:35.238Z,100930.88
2022-08-28T08:07:05.699Z,100925.25
2022-08-28T08:09:38.937Z,100929.72
2022-08-28T08:12:07.812Z,100930.78
2022-08-28T08:14:40.698Z,100927.50
2022-08-28T08:17:10.214Z,100923.97
2022-08-28T08:19:38.583Z,100926.69
2022-08-28T08:22:06.775Z,100937.81
2022-08-28T08:24:35.414Z,100930.25
2022-08-28T08:27:04.072Z,100930.06
2022-08-28T08:29:35.543Z,100940.69
2022-08-28T08:32:07.880Z,100936.50
2022-08-28T08:34:38.607Z,100942.66
2022-08-28T08:37:07.336Z,100939.47
2022-08-28T08:39:36.589Z,100930.13
2022-08-28T08:42:08.840Z,100931.91
2022-08-28T08:44:42.058Z,100939.38
2022-08-28T08:47:16.490Z,100928.53
2022-08-28T08:49:52.956Z,100941.19
2022-08-28T08:52:29.181Z,100950.16
2022-08-28T08:55:07.127Z,100959.88
2022-08-28T08:57:37.795Z,100958.63
2022-08-28T09:00:12.305Z,100954.94
2022-08-28T09:02:51.296Z,100965.03
2022-08-28T09:05:23.694Z,100974.09
2022-08-28T09:07:56.851Z,100974.59
2022-08-28T09:10:27.679Z,100968.81
2022-08-28T09:13:02.209Z,100978.81
2022-08-28T09:15:32.966Z,100980.75
2022-08-28T09:18:12.074Z,100961.03
2022-08-28T09:20:40.823Z,100962.84
2022-08-28T09:23:12.562Z,100959.53
2022-08-28T09:25:51.855Z,100969.16
2022-08-28T09:28:23.881Z,100971.50
2022-08-28T09:31:02.157Z,100975.78
2022-08-28T09:33:38.847Z,100980.47
2022-08-28T09:36:26.879Z,100987.16
2022-08-28T09:39:17.339Z,100987.44
2022-08-28T09:42:14.767Z,100985.19
2022-08-28T09:45:01.054Z,100981.47
2022-08-28T09:47:46.375Z,100987.22
2022-08-28T09:50:21.159Z,100979.06
2022-08-28T09:52:50.331Z,100980.75
2022-08-28T09:55:25.911Z,100988.75
2022-08-28T09:57:55.399Z,100984.28
2022-08-28T10:00:23.862Z,100983.44
2022-08-28T10:02:59.475Z,100996.25
2022-08-28T10:05:57.519Z,100991.34
2022-08-28T10:08:51.843Z,100997.84
2022-08-28T10:11:28.894Z,100993.50
2022-08-28T10:14:06.351Z,101003.53
2022-08-28T10:16:44.996Z,101011.44
2022-08-28T10:19:22.643Z,101016.00
2022-08-28T10:22:01.296Z,101007.56
2022-08-28T10:24:50.925Z,100998.84
2022-08-28T10:27:33.752Z,101000.06
2022-08-28T10:30:12.431Z,101019.41
2022-08-28T10:33:02.499Z,101022.97
2022-08-28T10:35:41.642Z,101022.47
2022-08-28T10:38:16.195Z,101024.22
2022-08-28T10:40:55.525Z,101027.13
2022-08-28T10:43:31.700Z,101027.59
2022-08-28T10:46:05.352Z,101034.47
2022-08-28T10:48:39.105Z,101030.81
2022-08-28T10:51:12.608Z,101031.41
2022-08-28T10:53:47.170Z,101032.78
2022-08-28T10:56:17.961Z,101036.47
2022-08-28T10:58:48.275Z,101028.63
2022-08-28T11:01:25.932Z,101023.28
2022-08-28T11:03:56.867Z,101042.41
2022-08-28T11:06:31.448Z,101035.03
2022-08-28T11:09:24.840Z,101035.38
2022-08-28T11:12:01.590Z,101036.91
2022-08-28T11:14:32.690Z,101042.78
2022-08-28T11:17:03.436Z,101040.44
2022-08-28T11:22:18.343Z,101046.19
2022-08-28T11:25:01.732Z,101037.31
2022-08-28T11:27:33.799Z,101042.16
2022-08-28T11:30:26.303Z,101044.19
2022-08-28T11:33:31.109Z,101046.19
2022-08-28T11:35:59.312Z,101035.31
2022-08-28T11:39:13.420Z,101039.41
2022-08-28T11:42:17.792Z,101047.09
2022-08-28T11:44:47.617Z,101047.66
2022-08-28T11:47:40.256Z,101052.25
2022-08-28T11:50:16.778Z,101042.75
2022-08-28T11:53:06.628Z,101056.41
2022-08-28T11:55:51.561Z,101058.75
2022-08-28T11:58:27.416Z,101067.75
2022-08-28T12:01:04.488Z,101054.88
2022-08-28T12:03:38.062Z,101048.66
2022-08-28T12:06:07.789Z,101056.56
2022-08-28T12:09:12.899Z,101046.56
2022-08-28T12:12:01.450Z,101055.84
2022-08-28T12:15:03.893Z,101054.63
2022-08-28T12:17:52.082Z,101054.25
2022-08-28T12:20:31.368Z,101057.84
2022-08-28T12:23:01.598Z,101056.09
2022-08-28T12:25:35.209Z,101054.78
2022-08-28T12:28:16.123Z,101059.97
2022-08-28T12:30:54.050Z,101060.41
2022-08-28T12:33:31.962Z,101060.25
2022-08-28T12:36:03.118Z,101067.78
2022-08-28T12:38:33.531Z,101062.38
2022-08-28T12:41:03.104Z,101054.28
2022-08-28T12:43:35.698Z,101064.22
2022-08-28T12:46:20.006Z,101064.84
2022-08-28T12:48:52.263Z,101053.00
2022-08-28T12:51:23.096Z,101055.56
2022-08-28T12:53:53.634Z,101063.88
2022-08-28T12:56:23.989Z,101060.72
2022-08-28T12:58:52.633Z,101060.28
2022-08-28T13:01:28.943Z,101066.88
2022-08-28T13:04:00.992Z,101066.94
2022-08-28T13:06:32.235Z,101059.03
2022-08-28T13:09:02.691Z,101064.38
2022-08-28T13:11:34.901Z,101064.56
2022-08-28T13:14:04.308Z,101052.69
2022-08-28T13:16:40.001Z,101053.44
2022-08-28T13:19:24.970Z,101063.84
2022-08-28T13:21:58.793Z,101062.06
2022-08-28T13:24:39.392Z,101060.75
2022-08-28T13:27:20.375Z,101068.91
2022-08-28T13:29:59.873Z,101059.22
2022-08-28T13:32:30.237Z,101052.56
2022-08-28T13:35:32.713Z,101051.00
2022-08-28T13:38:03.442Z,101054.13
2022-08-28T13:43:25.352Z,101050.03
2022-08-28T13:45:53.962Z,101045.84
2022-08-28T13:48:25.044Z,101047.16
2022-08-28T13:50:59.284Z,101054.28
2022-08-28T13:53:27.530Z,101046.41
2022-08-28T13:55:56.253Z,101053.28
2022-08-28T13:58:24.716Z,101054.47
2022-08-28T14:00:52.993Z,101059.03
2022-08-28T14:03:35.841Z,101071.28
2022-08-28T14:06:08.059Z,101063.78
2022-08-28T14:08:36.370Z,101068.31
2022-08-28T14:11:04.927Z,101077.88
2022-08-28T14:13:33.097Z,101076.59
2022-08-28T14:16:05.691Z,101075.66
2022-08-28T14:18:34.654Z,101070.19
2022-08-28T14:21:07.139Z,101062.97
2022-08-28T14:23:35.376Z,101073.34
2022-08-28T14:26:06.335Z,101073.59
2022-08-28T14:28:34.516Z,101069.19
2022-08-28T14:31:09.876Z,101067.22
2022-08-28T14:33:41.680Z,101060.50
2022-08-28T14:36:17.030Z,101062.63
2022-08-28T14:41:17.401Z,101064.38
2022-08-28T14:43:46.087Z,101067.41
2022-08-28T14:46:19.230Z,101062.34
2022-08-28T14:48:48.668Z,101063.75
2022-08-28T14:51:19.162Z,101063.31
2022-08-28T14:53:48.026Z,101058.78
2022-08-28T14:56:16.270Z,101064.09
2022-08-28T14:58:45.333Z,101062.16
2022-08-28T15:01:22.224Z,101066.00
2022-08-28T15:03:51.068Z,101061.06
2022-08-28T15:06:20.901Z,101068.13
2022-08-28T15:08:49.136Z,101066.19
2022-08-28T15:11:19.915Z,101062.81
2022-08-28T15:13:49.406Z,101070.47
2022-08-28T15:16:20.076Z,101070.63
2022-08-28T15:18:49.005Z,101067.31
2022-08-28T15:21:18.009Z,101066.59
2022-08-28T15:26:17.562Z,101068.88
2022-08-28T15:28:45.854Z,101073.63
2022-08-28T15:31:14.074Z,101075.22
2022-08-28T15:33:45.336Z,101068.69
2022-08-28T15:36:13.973Z,101078.28
2022-08-28T15:38:59.734Z,101073.59
2022-08-28T15:41:30.575Z,101067.16
2022-08-28T15:44:01.298Z,101076.53
2022-08-28T15:46:33.546Z,101084.47
2022-08-28T15:49:02.464Z,101086.53
2022-08-28T15:51:31.708Z,101090.97
2022-08-28T15:54:01.450Z,101082.56
2022-08-28T15:56:31.018Z,101086.56
2022-08-28T15:58:59.201Z,101097.34
2022-08-28T16:01:27.399Z,101089.34
2022-08-28T16:03:55.944Z,101089.84
2022-08-28T16:06:24.355Z,101102.19
2022-08-28T16:08:52.533Z,101092.66
2022-08-28T16:11:23.667Z,101090.06
2022-08-28T16:13:53.925Z,101079.75
2022-08-28T16:16:22.442Z,101078.41
2022-08-28T16:18:50.776Z,101083.66
2022-08-28T16:21:19.854Z,101086.16
2022-08-28T16:23:48.100Z,101089.41
2022-08-28T16:26:16.722Z,101079.28
2022-08-28T16:28:45.067Z,101088.25
2022-08-28T16:34:04.451Z,101093.63
2022-08-28T16:35:56.477Z,101083.06
2022-08-28T16:36:33.334Z,101090.94
2022-08-28T16:39:03.722Z,101095.63
2022-08-28T16:41:32.582Z,101094.66
2022-08-28T16:44:00.827Z,101093.28
2022-08-28T16:46:30.411Z,101081.41
2022-08-28T16:48:59.633Z,101081.28
2022-08-28T16:51:29.692Z,101081.00
2022-08-28T16:53:58.339Z,101082.19
2022-08-28T16:56:26.719Z,101069.78
2022-08-28T16:58:55.269Z,101079.22
2022-08-28T17:01:24.540Z,101069.78
2022-08-28T17:03:54.538Z,101069.44
2022-08-28T17:06:26.110Z,101069.47
2022-08-28T17:08:57.189Z,101063.03
2022-08-28T17:11:26.192Z,101068.09
2022-08-28T17:13:55.384Z,101066.38
2022-08-28T17:16:25.338Z,101065.16
2022-08-28T17:18:54.919Z,101068.88
2022-08-28T17:21:40.945Z,101072.31
2022-08-28T17:24:09.670Z,101070.31
2022-08-28T17:26:37.939Z,101070.47
2022-08-28T17:29:06.692Z,101077.69
2022-08-28T17:31:35.091Z,101074.16
2022-08-28T17:34:05.655Z,101078.16
2022-08-28T17:36:34.460Z,101076.91
2022-08-28T17:39:05.564Z,101075.34
2022-08-28T17:41:34.123Z,101081.31
2022-08-28T17:44:02.823Z,101072.81
2022-08-28T17:46:35.376Z,101087.28
2022-08-28T17:49:09.145Z,101079.91
2022-08-28T17:51:43.399Z,101083.00
2022-08-28T17:54:14.880Z,101083.28
2022-08-28T17:56:43.399Z,101086.22
2022-08-28T17:59:12.477Z,101084.66
2022-08-28T18:01:42.286Z,101088.84
2022-08-28T18:04:12.626Z,101089.69
2022-08-28T18:06:41.333Z,101097.97
2022-08-28T18:09:10.482Z,101093.00
2022-08-28T18:11:38.769Z,101090.31
2022-08-28T18:14:08.418Z,101092.13
2022-08-28T18:16:38.332Z,101099.59
2022-08-28T18:19:08.454Z,101098.22
2022-08-28T18:21:39.193Z,101098.81
2022-08-28T18:24:08.524Z,101104.25
2022-08-28T18:26:37.047Z,101108.84
2022-08-28T18:29:05.450Z,101101.13
2022-08-28T18:31:33.701Z,101105.53
2022-08-28T18:34:02.073Z,101101.63
2022-08-28T18:36:30.372Z,101107.66
2022-08-28T18:38:59.896Z,101102.69
2022-08-28T18:41:41.610Z,101108.91
2022-08-28T18:44:15.180Z,101117.16
2022-08-28T18:46:44.777Z,101108.38
2022-08-28T18:49:13.630Z,101122.63
2022-08-28T18:51:43.774Z,101117.78
2022-08-28T18:54:16.434Z,101117.47
2022-08-28T18:56:45.293Z,101121.63
2022-08-28T18:59:13.594Z,101114.84
2022-08-28T19:01:41.916Z,101121.00
2022-08-28T19:04:10.267Z,101121.91
2022-08-28T19:06:38.713Z,101123.59
2022-08-28T19:09:06.910Z,101121.22
2022-08-28T19:11:36.908Z,101124.81
2022-08-28T19:14:05.183Z,101133.63
2022-08-28T19:16:35.259Z,101128.75
2022-08-28T19:19:04.592Z,101133.28
2022-08-28T19:21:33.255Z,101119.41
2022-08-28T19:24:01.600Z,101137.31
2022-08-28T19:26:30.057Z,101135.13
2022-08-28T19:29:00.030Z,101134.75
2022-08-28T19:31:28.770Z,101139.50
2022-08-28T19:33:58.145Z,101145.00
2022-08-28T19:36:27.425Z,101155.72
2022-08-28T19:38:55.591Z,101147.06
2022-08-28T19:41:24.638Z,101156.06
2022-08-28T19:43:52.939Z,101159.47
2022-08-28T19:46:23.369Z,101161.78
2022-08-28T19:48:53.983Z,101169.19
2022-08-28T19:51:25.044Z,101165.31
2022-08-28T19:53:58.291Z,101166.53
2022-08-28T19:56:27.886Z,101162.88
2022-08-28T19:58:58.375Z,101181.25
2022-08-28T20:01:29.736Z,101177.47
2022-08-28T20:03:59.426Z,101183.31
2022-08-28T20:06:28.374Z,101177.94
2022-08-28T20:08:56.642Z,101179.13
2022-08-28T20:11:30.271Z,101179.53
2022-08-28T20:14:03.962Z,101176.66
2022-08-28T20:16:37.145Z,101185.75
2022-08-28T20:19:06.964Z,101181.72
2022-08-28T20:21:37.916Z,101185.16
2022-08-28T20:24:07.974Z,101188.88
2022-08-28T20:26:36.602Z,101194.88
2022-08-28T20:29:06.312Z,101191.09
2022-08-28T20:31:40.306Z,101199.34
2022-08-28T20:34:09.110Z,101202.06
2022-08-28T20:36:37.623Z,101192.22
2022-08-28T20:39:09.238Z,101191.63
2022-08-28T20:41:39.211Z,101196.91
2022-08-28T20:44:09.273Z,101198.81
2022-08-28T20:46:41.489Z,101196.50
2022-08-28T20:49:10.383Z,101189.31
2022-08-28T20:51:56.386Z,101198.81
2022-08-28T20:54:28.458Z,101198.78
2022-08-28T20:56:58.349Z,101198.66
2022-08-28T20:59:33.438Z,101198.97
2022-08-28T21:02:10.384Z,101200.50
2022-08-28T21:04:40.457Z,101205.16
2022-08-28T21:07:09.292Z,101201.38
2022-08-28T21:10:04.491Z,101205.88
2022-08-28T21:12:26.090Z,101202.59
2022-08-28T21:14:56.922Z,101207.88
2022-08-28T21:17:28.761Z,101206.78
2022-08-28T21:20:00.136Z,101205.41
2022-08-28T21:22:31.369Z,101202.25
2022-08-28T21:24:59.783Z,101209.00
2022-08-28T21:27:28.288Z,101202.41
2022-08-28T21:29:58.380Z,101211.69
2022-08-28T21:32:29.681Z,101213.31
2022-08-28T21:34:58.465Z,101212.38
2022-08-28T21:37:26.652Z,101211.63
2022-08-28T21:39:56.616Z,101208.88
2022-08-28T21:42:25.072Z,101214.59
2022-08-28T21:44:54.480Z,101205.72
2022-08-28T21:47:23.903Z,101206.28
2022-08-28T21:49:55.202Z,101209.59
2022-08-28T21:52:26.003Z,101203.03
2022-08-28T21:54:58.602Z,101211.28
2022-08-28T21:57:26.979Z,101210.88
2022-08-28T21:59:55.562Z,101205.53
2022-08-28T22:02:23.790Z,101213.34
2022-08-28T22:04:53.860Z,101209.50
2022-08-28T22:07:22.347Z,101221.34
2022-08-28T22:09:50.769Z,101217.09
2022-08-28T22:12:19.285Z,101214.75
2022-08-28T22:14:47.512Z,101230.63
2022-08-28T22:17:16.267Z,101221.47
2022-08-28T22:19:45.650Z,101237.38
2022-08-28T22:22:34.812Z,101236.53
2022-08-28T22:25:03.106Z,101233.63
2022-08-28T22:27:33.037Z,101229.34
2022-08-28T22:30:01.245Z,101234.16
2022-08-28T22:32:29.531Z,101237.25
2022-08-28T22:34:57.716Z,101235.56
2022-08-28T22:37:27.265Z,101238.41
2022-08-28T22:39:55.519Z,101244.38
2022-08-28T22:42:24.003Z,101233.72
2022-08-28T22:44:52.162Z,101244.88
2022-08-28T22:47:20.354Z,101241.59
2022-08-28T22:49:48.675Z,101246.31
2022-08-28T22:52:17.710Z,101244.69
2022-08-28T22:54:47.235Z,101240.13
2022-08-28T22:57:21.783Z,101247.78
2022-08-28T22:59:50.327Z,101252.47
2022-08-28T23:02:21.481Z,101241.81
2022-08-28T23:04:52.012Z,101242.44
2022-08-28T23:07:20.582Z,101247.09
2022-08-28T23:09:50.163Z,101251.38
2022-08-28T23:12:18.495Z,101250.53
2022-08-28T23:14:48.827Z,101246.63
2022-08-28T23:17:17.819Z,101258.03
2022-08-28T23:19:48.215Z,101255.78
2022-08-28T23:22:17.359Z,101250.97
2022-08-28T23:24:46.576Z,101259.59
2022-08-28T23:27:35.307Z,101255.69
2022-08-28T23:30:07.138Z,101255.50
2022-08-28T23:32:35.539Z,101252.72
2022-08-28T23:35:07.112Z,101254.63
2022-08-28T23:37:37.503Z,101250.22
2022-08-28T23:40:08.524Z,101246.88
2022-08-28T23:42:38.674Z,101250.81
2022-08-28T23:45:08.488Z,101249.91
2022-08-28T23:47:40.473Z,101244.66
2022-08-28T23:50:12.679Z,101237.06
2022-08-28T23:52:40.920Z,101234.28
2022-08-28T23:55:12.880Z,101234.28
2022-08-28T23:57:44.089Z,101231.28
